SAS2690 LIMC-ESSA
Flight info
| Callsign | SAS2690 |
|---|---|
| Flight time | 2h 10m |
| Altitude | 38000 |
| Route | OSKOR DCT NESTI DCT TAGIP DCT GOGEM DCT LENIZ/N0429F390 DCT RUDNO DCT AGNAV DCT SUPIL DCT KILNU DCT UNRIG DCT BODLA L132 DEMUR N746 GORPI DCT VSB/N0433F380 DCT ROGMI Z229 NILUG |
| Aircraft | A20N/M-SDE2E3FGHIRWXY/LB1 |
Departure
| Time | 2026-05-05 18:54 |
|---|---|
| Airport | Milan Malpensa International Airport (LIMC) |
Arrival
| Time | 2026-05-05 21:04 |
|---|---|
| Airport | Stockholm-Arlanda Airport (ESSA) |
| Time | Latitude | Longitude | Altitude | Speed | Heading |
|---|---|---|---|---|---|
| 2026-05-05 18:30 | 45.62460 | 8.71773 | 731 ft | 0 kts | 259° |
| 2026-05-05 18:41 | 45.62460 | 8.71774 | 731 ft | 0 kts | 258° |
| 2026-05-05 18:42 | 45.62461 | 8.71794 | 731 ft | 2 kts | 261° |
| 2026-05-05 18:42 | 45.62465 | 8.71814 | 731 ft | 2 kts | 259° |
| 2026-05-05 18:42 | 45.62467 | 8.71836 | 731 ft | 2 kts | 259° |
| 2026-05-05 18:42 | 45.62470 | 8.71856 | 731 ft | 1 kts | 259° |
| 2026-05-05 18:43 | 45.62472 | 8.71869 | 731 ft | 2 kts | 237° |
| 2026-05-05 18:43 | 45.62484 | 8.71882 | 731 ft | 2 kts | 188° |
| 2026-05-05 18:43 | 45.62492 | 8.71882 | 731 ft | 0 kts | 166° |
| 2026-05-05 18:43 | 45.62474 | 8.71885 | 731 ft | 5 kts | 169° |
| 2026-05-05 18:44 | 45.62445 | 8.71893 | 730 ft | 1 kts | 169° |
| 2026-05-05 18:44 | 45.62442 | 8.71894 | 730 ft | 0 kts | 169° |
| 2026-05-05 18:45 | 45.62429 | 8.71897 | 730 ft | 3 kts | 170° |
| 2026-05-05 18:46 | 45.62397 | 8.71906 | 729 ft | 6 kts | 169° |
| 2026-05-05 18:46 | 45.62346 | 8.71919 | 728 ft | 8 kts | 169° |
| 2026-05-05 18:46 | 45.62276 | 8.71938 | 727 ft | 11 kts | 169° |
| 2026-05-05 18:46 | 45.62188 | 8.71963 | 725 ft | 14 kts | 169° |
| 2026-05-05 18:47 | 45.62085 | 8.71992 | 723 ft | 16 kts | 169° |
| 2026-05-05 18:47 | 45.61966 | 8.72025 | 720 ft | 18 kts | 169° |
| 2026-05-05 18:47 | 45.61837 | 8.72060 | 717 ft | 20 kts | 170° |
| 2026-05-05 18:47 | 45.61694 | 8.72099 | 713 ft | 21 kts | 169° |
| 2026-05-05 18:48 | 45.61541 | 8.72141 | 709 ft | 23 kts | 169° |
| 2026-05-05 18:48 | 45.61381 | 8.72185 | 705 ft | 24 kts | 170° |
| 2026-05-05 18:48 | 45.61212 | 8.72233 | 701 ft | 24 kts | 169° |
| 2026-05-05 18:48 | 45.61043 | 8.72278 | 697 ft | 25 kts | 169° |
| 2026-05-05 18:49 | 45.60869 | 8.72326 | 695 ft | 25 kts | 169° |
| 2026-05-05 18:49 | 45.60710 | 8.72372 | 692 ft | 20 kts | 163° |
| 2026-05-05 18:49 | 45.60635 | 8.72524 | 691 ft | 20 kts | 95° |
| 2026-05-05 18:49 | 45.60621 | 8.72726 | 690 ft | 20 kts | 96° |
| 2026-05-05 18:50 | 45.60606 | 8.72931 | 689 ft | 21 kts | 95° |
| 2026-05-05 18:50 | 45.60592 | 8.73145 | 689 ft | 22 kts | 95° |
| 2026-05-05 18:50 | 45.60674 | 8.73306 | 689 ft | 21 kts | 21° |
| 2026-05-05 18:50 | 45.60817 | 8.73384 | 690 ft | 21 kts | 21° |
| 2026-05-05 18:51 | 45.60961 | 8.73397 | 691 ft | 21 kts | 349° |
| 2026-05-05 18:51 | 45.61103 | 8.73361 | 693 ft | 20 kts | 350° |
| 2026-05-05 18:51 | 45.61240 | 8.73324 | 695 ft | 19 kts | 349° |
| 2026-05-05 18:51 | 45.61371 | 8.73287 | 697 ft | 18 kts | 348° |
| 2026-05-05 18:52 | 45.61490 | 8.73253 | 700 ft | 16 kts | 349° |
| 2026-05-05 18:52 | 45.61596 | 8.73236 | 702 ft | 14 kts | 26° |
| 2026-05-05 18:52 | 45.61628 | 8.73364 | 701 ft | 14 kts | 82° |
| 2026-05-05 18:52 | 45.61608 | 8.73508 | 700 ft | 15 kts | 124° |
| 2026-05-05 18:53 | 45.61589 | 8.73659 | 699 ft | 16 kts | 77° |
| 2026-05-05 18:53 | 45.61631 | 8.73743 | 700 ft | 11 kts | 348° |
| 2026-05-05 18:53 | 45.61760 | 8.73705 | 703 ft | 45 kts | 349° |
| 2026-05-05 18:53 | 45.62326 | 8.73550 | 715 ft | 118 kts | 349° |
| 2026-05-05 18:54 | 45.63316 | 8.73280 | 859 ft | 162 kts | 349° |
| 2026-05-05 18:54 | 45.64406 | 8.73016 | 1608 ft | 160 kts | 358° |
| 2026-05-05 18:54 | 45.65453 | 8.73467 | 2144 ft | 171 kts | 39° |
| 2026-05-05 18:54 | 45.66271 | 8.74781 | 2614 ft | 187 kts | 52° |
| 2026-05-05 18:55 | 45.67119 | 8.76302 | 3129 ft | 203 kts | 49° |
| 2026-05-05 18:55 | 45.68079 | 8.77763 | 3823 ft | 208 kts | 45° |
| 2026-05-05 18:55 | 45.69139 | 8.79182 | 4607 ft | 210 kts | 42° |
| 2026-05-05 18:55 | 45.70112 | 8.80695 | 5153 ft | 224 kts | 64° |
| 2026-05-05 18:56 | 45.70501 | 8.82844 | 5653 ft | 241 kts | 86° |
| 2026-05-05 18:56 | 45.70584 | 8.85331 | 6235 ft | 259 kts | 89° |
| 2026-05-05 18:56 | 45.70651 | 8.87988 | 6883 ft | 274 kts | 88° |
| 2026-05-05 18:56 | 45.70760 | 8.90727 | 7750 ft | 280 kts | 87° |
| 2026-05-05 18:57 | 45.70905 | 8.93518 | 8644 ft | 284 kts | 86° |
| 2026-05-05 18:57 | 45.71074 | 8.96340 | 9525 ft | 289 kts | 86° |
| 2026-05-05 18:57 | 45.71258 | 8.99203 | 10360 ft | 294 kts | 86° |
| 2026-05-05 18:57 | 45.71455 | 9.02163 | 10912 ft | 310 kts | 86° |
| 2026-05-05 18:58 | 45.71669 | 9.05319 | 11562 ft | 321 kts | 86° |
| 2026-05-05 18:58 | 45.71888 | 9.08499 | 12359 ft | 326 kts | 86° |
| 2026-05-05 18:58 | 45.72112 | 9.11742 | 13139 ft | 332 kts | 86° |
| 2026-05-05 18:58 | 45.72342 | 9.15067 | 13817 ft | 340 kts | 86° |
| 2026-05-05 18:59 | 45.72577 | 9.18490 | 14480 ft | 348 kts | 86° |
| 2026-05-05 18:59 | 45.72814 | 9.21949 | 15208 ft | 354 kts | 87° |
| 2026-05-05 18:59 | 45.73054 | 9.25457 | 15924 ft | 359 kts | 87° |
| 2026-05-05 18:59 | 45.73297 | 9.29044 | 16629 ft | 364 kts | 87° |
| 2026-05-05 19:00 | 45.73542 | 9.32673 | 17315 ft | 369 kts | 88° |
| 2026-05-05 19:00 | 45.73788 | 9.36323 | 17969 ft | 375 kts | 88° |
| 2026-05-05 19:00 | 45.74035 | 9.40040 | 18614 ft | 380 kts | 88° |
| 2026-05-05 19:00 | 45.74287 | 9.43849 | 19263 ft | 385 kts | 88° |
| 2026-05-05 19:01 | 45.74537 | 9.47665 | 19905 ft | 389 kts | 88° |
| 2026-05-05 19:01 | 45.74792 | 9.51543 | 20529 ft | 393 kts | 88° |
| 2026-05-05 19:01 | 45.75049 | 9.55477 | 21141 ft | 398 kts | 88° |
| 2026-05-05 19:01 | 45.75304 | 9.59401 | 21736 ft | 402 kts | 88° |
| 2026-05-05 19:02 | 45.75565 | 9.63440 | 22332 ft | 406 kts | 88° |
| 2026-05-05 19:02 | 45.75825 | 9.67471 | 22901 ft | 410 kts | 88° |
| 2026-05-05 19:02 | 45.76085 | 9.71533 | 23455 ft | 414 kts | 88° |
| 2026-05-05 19:02 | 45.76348 | 9.75668 | 23973 ft | 418 kts | 88° |
| 2026-05-05 19:03 | 45.76612 | 9.79838 | 24470 ft | 423 kts | 88° |
| 2026-05-05 19:03 | 45.76878 | 9.84061 | 24964 ft | 427 kts | 88° |
| 2026-05-05 19:03 | 45.77142 | 9.88278 | 25438 ft | 431 kts | 88° |
| 2026-05-05 19:03 | 45.77413 | 9.92626 | 25917 ft | 435 kts | 88° |
| 2026-05-05 19:04 | 45.77676 | 9.96888 | 26370 ft | 438 kts | 88° |
| 2026-05-05 19:04 | 45.77947 | 10.01302 | 26819 ft | 442 kts | 88° |
| 2026-05-05 19:04 | 45.78214 | 10.05681 | 27254 ft | 446 kts | 88° |
| 2026-05-05 19:04 | 45.78484 | 10.10151 | 27666 ft | 450 kts | 88° |
| 2026-05-05 19:05 | 45.78753 | 10.14629 | 28045 ft | 454 kts | 88° |
| 2026-05-05 19:05 | 45.79024 | 10.19161 | 28444 ft | 457 kts | 88° |
| 2026-05-05 19:05 | 45.79293 | 10.23714 | 28828 ft | 461 kts | 88° |
| 2026-05-05 19:05 | 45.79564 | 10.28332 | 29205 ft | 465 kts | 88° |
| 2026-05-05 19:06 | 45.79835 | 10.32968 | 29569 ft | 468 kts | 88° |
| 2026-05-05 19:06 | 45.80272 | 10.37618 | 29931 ft | 474 kts | 81° |
| 2026-05-05 19:06 | 45.81141 | 10.42230 | 30291 ft | 480 kts | 72° |
| 2026-05-05 19:06 | 45.82444 | 10.46597 | 30646 ft | 483 kts | 63° |
| 2026-05-05 19:07 | 45.84178 | 10.50717 | 31029 ft | 485 kts | 54° |
| 2026-05-05 19:07 | 45.86153 | 10.54665 | 31463 ft | 485 kts | 52° |
| 2026-05-05 19:07 | 45.88156 | 10.58540 | 31980 ft | 483 kts | 52° |
| 2026-05-05 19:07 | 45.90229 | 10.62345 | 32486 ft | 480 kts | 48° |
| 2026-05-05 19:08 | 45.92473 | 10.65870 | 32942 ft | 477 kts | 43° |
| 2026-05-05 19:08 | 45.94894 | 10.69050 | 33345 ft | 474 kts | 37° |
| 2026-05-05 19:08 | 45.97555 | 10.71939 | 33749 ft | 471 kts | 31° |
| 2026-05-05 19:08 | 46.00327 | 10.74403 | 34120 ft | 468 kts | 26° |
| 2026-05-05 19:09 | 46.03194 | 10.76600 | 34501 ft | 466 kts | 25° |
| 2026-05-05 19:09 | 46.06066 | 10.78728 | 34897 ft | 464 kts | 25° |
| 2026-05-05 19:09 | 46.08927 | 10.80853 | 35273 ft | 462 kts | 25° |
| 2026-05-05 19:09 | 46.11764 | 10.82976 | 35609 ft | 461 kts | 25° |
| 2026-05-05 19:10 | 46.14605 | 10.85117 | 35916 ft | 460 kts | 25° |
| 2026-05-05 19:10 | 46.17426 | 10.87253 | 36212 ft | 459 kts | 26° |
| 2026-05-05 19:10 | 46.20273 | 10.89417 | 36481 ft | 459 kts | 26° |
| 2026-05-05 19:10 | 46.23095 | 10.91567 | 36694 ft | 460 kts | 26° |
| 2026-05-05 19:11 | 46.25894 | 10.93702 | 36878 ft | 461 kts | 26° |
| 2026-05-05 19:11 | 46.28767 | 10.95895 | 37082 ft | 462 kts | 26° |
| 2026-05-05 19:11 | 46.31603 | 10.98066 | 37290 ft | 462 kts | 26° |
| 2026-05-05 19:11 | 46.34423 | 11.00226 | 37474 ft | 463 kts | 26° |
| 2026-05-05 19:12 | 46.37270 | 11.02408 | 37652 ft | 464 kts | 26° |
| 2026-05-05 19:12 | 46.40122 | 11.04598 | 37823 ft | 464 kts | 26° |
| 2026-05-05 19:12 | 46.42978 | 11.06766 | 37965 ft | 465 kts | 23° |
| 2026-05-05 19:12 | 46.46005 | 11.08470 | 37974 ft | 463 kts | 15° |
| 2026-05-05 19:13 | 46.52142 | 11.11037 | 37979 ft | 462 kts | 13° |
| 2026-05-05 19:13 | 46.58326 | 11.13565 | 37979 ft | 462 kts | 13° |
| 2026-05-05 19:14 | 46.64519 | 11.16170 | 37980 ft | 463 kts | 13° |
| 2026-05-05 19:14 | 46.70674 | 11.18793 | 37980 ft | 463 kts | 13° |
| 2026-05-05 19:15 | 46.76790 | 11.21412 | 37978 ft | 462 kts | 13° |
| 2026-05-05 19:15 | 46.82935 | 11.24050 | 37963 ft | 462 kts | 13° |
| 2026-05-05 19:16 | 46.89091 | 11.26699 | 37937 ft | 468 kts | 13° |
| 2026-05-05 19:16 | 46.95392 | 11.29415 | 37905 ft | 474 kts | 13° |
| 2026-05-05 19:17 | 47.01646 | 11.32123 | 37887 ft | 474 kts | 13° |
| 2026-05-05 19:17 | 47.07990 | 11.34851 | 37878 ft | 474 kts | 13° |
| 2026-05-05 19:18 | 47.14056 | 11.37373 | 37873 ft | 474 kts | 13° |
| 2026-05-05 19:18 | 47.20409 | 11.40018 | 37871 ft | 474 kts | 13° |
| 2026-05-05 19:19 | 47.26734 | 11.42667 | 37870 ft | 474 kts | 13° |
| 2026-05-05 19:19 | 47.33077 | 11.45336 | 37870 ft | 474 kts | 13° |
| 2026-05-05 19:20 | 47.39359 | 11.47987 | 37870 ft | 474 kts | 13° |
| 2026-05-05 19:20 | 47.45627 | 11.50638 | 37870 ft | 474 kts | 13° |
| 2026-05-05 19:21 | 47.51939 | 11.53315 | 37870 ft | 474 kts | 13° |
| 2026-05-05 19:21 | 47.58188 | 11.55973 | 37870 ft | 473 kts | 13° |
| 2026-05-05 19:22 | 47.64488 | 11.58659 | 37870 ft | 473 kts | 13° |
| 2026-05-05 19:22 | 47.70790 | 11.61346 | 37870 ft | 473 kts | 13° |
| 2026-05-05 19:23 | 47.77029 | 11.64010 | 37870 ft | 473 kts | 13° |
| 2026-05-05 19:23 | 47.83229 | 11.66668 | 37869 ft | 473 kts | 14° |
| 2026-05-05 19:24 | 47.89507 | 11.69368 | 37869 ft | 473 kts | 14° |
| 2026-05-05 19:24 | 47.95793 | 11.72079 | 37865 ft | 473 kts | 14° |
| 2026-05-05 19:25 | 48.02065 | 11.74791 | 37858 ft | 473 kts | 14° |
| 2026-05-05 19:25 | 48.08359 | 11.77519 | 37851 ft | 473 kts | 14° |
| 2026-05-05 19:26 | 48.14511 | 11.80194 | 37846 ft | 473 kts | 14° |
| 2026-05-05 19:26 | 48.20825 | 11.82945 | 37845 ft | 474 kts | 14° |
| 2026-05-05 19:27 | 48.27133 | 11.85701 | 37844 ft | 474 kts | 14° |
| 2026-05-05 19:27 | 48.33430 | 11.88458 | 37843 ft | 474 kts | 14° |
| 2026-05-05 19:28 | 48.39664 | 11.91195 | 37844 ft | 473 kts | 14° |
| 2026-05-05 19:28 | 48.45972 | 11.93971 | 37843 ft | 473 kts | 14° |
| 2026-05-05 19:29 | 48.52248 | 11.96740 | 37843 ft | 473 kts | 14° |
| 2026-05-05 19:29 | 48.58550 | 11.99529 | 37841 ft | 473 kts | 14° |
| 2026-05-05 19:30 | 48.64766 | 12.02289 | 37838 ft | 471 kts | 14° |
| 2026-05-05 19:30 | 48.71019 | 12.05069 | 37833 ft | 470 kts | 14° |
| 2026-05-05 19:31 | 48.77255 | 12.07849 | 37831 ft | 470 kts | 14° |
| 2026-05-05 19:31 | 48.83466 | 12.10626 | 37830 ft | 470 kts | 14° |
| 2026-05-05 19:32 | 48.89742 | 12.13439 | 37829 ft | 469 kts | 14° |
| 2026-05-05 19:32 | 48.95971 | 12.16238 | 37829 ft | 469 kts | 15° |
| 2026-05-05 19:33 | 49.02212 | 12.19051 | 37830 ft | 469 kts | 15° |
| 2026-05-05 19:33 | 49.08453 | 12.21870 | 37829 ft | 468 kts | 15° |
| 2026-05-05 19:34 | 49.14635 | 12.24673 | 37829 ft | 468 kts | 15° |
| 2026-05-05 19:35 | 49.23900 | 12.28886 | 37825 ft | 468 kts | 15° |
| 2026-05-05 19:35 | 49.30011 | 12.31676 | 37820 ft | 468 kts | 15° |
| 2026-05-05 19:36 | 49.36300 | 12.34553 | 37815 ft | 468 kts | 15° |
| 2026-05-05 19:36 | 49.42542 | 12.37410 | 37812 ft | 468 kts | 15° |
| 2026-05-05 19:37 | 49.48730 | 12.40253 | 37810 ft | 468 kts | 15° |
| 2026-05-05 19:37 | 49.54958 | 12.43126 | 37810 ft | 468 kts | 15° |
| 2026-05-05 19:38 | 49.61136 | 12.45979 | 37810 ft | 468 kts | 15° |
| 2026-05-05 19:38 | 49.67353 | 12.48816 | 37810 ft | 468 kts | 15° |
| 2026-05-05 19:39 | 49.73545 | 12.51646 | 37810 ft | 468 kts | 15° |
| 2026-05-05 19:39 | 49.79758 | 12.54499 | 37810 ft | 468 kts | 15° |
| 2026-05-05 19:40 | 49.85970 | 12.57362 | 37813 ft | 468 kts | 15° |
| 2026-05-05 19:40 | 49.92177 | 12.60229 | 37822 ft | 468 kts | 15° |
| 2026-05-05 19:41 | 49.98407 | 12.63115 | 37832 ft | 468 kts | 15° |
| 2026-05-05 19:41 | 50.04634 | 12.66009 | 37836 ft | 469 kts | 16° |
| 2026-05-05 19:42 | 50.10192 | 12.68599 | 37840 ft | 469 kts | 16° |
| 2026-05-05 19:42 | 50.15839 | 12.71236 | 37841 ft | 469 kts | 16° |
| 2026-05-05 19:43 | 50.22015 | 12.74130 | 37841 ft | 469 kts | 16° |
| 2026-05-05 19:43 | 50.28245 | 12.77058 | 37841 ft | 469 kts | 16° |
| 2026-05-05 19:44 | 50.32421 | 12.79060 | 37837 ft | 469 kts | 18° |
| 2026-05-05 19:44 | 50.39494 | 12.83601 | 37825 ft | 469 kts | 26° |
| 2026-05-05 19:45 | 50.45398 | 12.88561 | 37809 ft | 470 kts | 27° |
| 2026-05-05 19:45 | 50.51310 | 12.92713 | 37797 ft | 469 kts | 20° |
| 2026-05-05 19:46 | 50.57530 | 12.95896 | 37792 ft | 468 kts | 16° |
| 2026-05-05 19:46 | 50.63753 | 12.98838 | 37789 ft | 469 kts | 16° |
| 2026-05-05 19:47 | 50.69976 | 13.01795 | 37789 ft | 469 kts | 16° |
| 2026-05-05 19:47 | 50.76241 | 13.04795 | 37789 ft | 469 kts | 16° |
| 2026-05-05 19:48 | 50.82481 | 13.07798 | 37788 ft | 470 kts | 16° |
| 2026-05-05 19:48 | 50.88744 | 13.10822 | 37788 ft | 471 kts | 16° |
| 2026-05-05 19:49 | 50.94973 | 13.13837 | 37789 ft | 471 kts | 16° |
| 2026-05-05 19:49 | 51.01271 | 13.16895 | 37789 ft | 471 kts | 15° |
| 2026-05-05 19:50 | 51.07490 | 13.19923 | 37790 ft | 471 kts | 15° |
| 2026-05-05 19:50 | 51.13755 | 13.22983 | 37788 ft | 472 kts | 15° |
| 2026-05-05 19:51 | 51.20052 | 13.26066 | 37788 ft | 473 kts | 15° |
| 2026-05-05 19:51 | 51.26340 | 13.29154 | 37788 ft | 473 kts | 15° |
| 2026-05-05 19:52 | 51.32643 | 13.32258 | 37789 ft | 474 kts | 15° |
| 2026-05-05 19:52 | 51.38900 | 13.35347 | 37789 ft | 474 kts | 15° |
| 2026-05-05 19:53 | 51.45213 | 13.38475 | 37788 ft | 475 kts | 15° |
| 2026-05-05 19:53 | 51.51512 | 13.41606 | 37788 ft | 475 kts | 15° |
| 2026-05-05 19:54 | 51.57814 | 13.44748 | 37789 ft | 476 kts | 14° |
| 2026-05-05 19:54 | 51.64127 | 13.47904 | 37794 ft | 476 kts | 14° |
| 2026-05-05 19:55 | 51.70427 | 13.51063 | 37802 ft | 477 kts | 14° |
| 2026-05-05 19:55 | 51.76762 | 13.54248 | 37808 ft | 477 kts | 14° |
| 2026-05-05 19:56 | 51.83064 | 13.57428 | 37811 ft | 478 kts | 14° |
| 2026-05-05 19:56 | 51.89378 | 13.60688 | 37813 ft | 479 kts | 15° |
| 2026-05-05 19:57 | 51.95633 | 13.64217 | 37813 ft | 479 kts | 16° |
| 2026-05-05 19:57 | 52.01907 | 13.67787 | 37812 ft | 480 kts | 17° |
| 2026-05-05 19:58 | 52.08161 | 13.71336 | 37813 ft | 480 kts | 17° |
| 2026-05-05 19:58 | 52.14457 | 13.74908 | 37813 ft | 480 kts | 17° |
| 2026-05-05 19:59 | 52.20707 | 13.78465 | 37814 ft | 480 kts | 17° |
| 2026-05-05 19:59 | 52.26992 | 13.82053 | 37819 ft | 480 kts | 16° |
| 2026-05-05 20:00 | 52.33264 | 13.85642 | 37827 ft | 479 kts | 16° |
| 2026-05-05 20:00 | 52.39572 | 13.89263 | 37835 ft | 479 kts | 16° |
| 2026-05-05 20:01 | 52.45855 | 13.92881 | 37839 ft | 479 kts | 16° |
| 2026-05-05 20:01 | 52.52163 | 13.96525 | 37842 ft | 479 kts | 16° |
| 2026-05-05 20:02 | 52.58455 | 14.00170 | 37845 ft | 479 kts | 16° |
| 2026-05-05 20:02 | 52.64691 | 14.03796 | 37849 ft | 479 kts | 16° |
| 2026-05-05 20:03 | 52.70972 | 14.07457 | 37854 ft | 478 kts | 16° |
| 2026-05-05 20:03 | 52.77191 | 14.11094 | 37864 ft | 478 kts | 16° |
| 2026-05-05 20:04 | 52.83455 | 14.14766 | 37878 ft | 478 kts | 15° |
| 2026-05-05 20:04 | 52.89667 | 14.18421 | 37887 ft | 478 kts | 15° |
| 2026-05-05 20:05 | 52.95921 | 14.22112 | 37892 ft | 477 kts | 15° |
| 2026-05-05 20:05 | 53.02147 | 14.25798 | 37895 ft | 477 kts | 15° |
| 2026-05-05 20:06 | 53.08317 | 14.29460 | 37896 ft | 477 kts | 15° |
| 2026-05-05 20:06 | 53.14442 | 14.33110 | 37896 ft | 477 kts | 15° |
| 2026-05-05 20:07 | 53.20581 | 14.36780 | 37897 ft | 477 kts | 15° |
| 2026-05-05 20:07 | 53.26795 | 14.40521 | 37896 ft | 477 kts | 16° |
| 2026-05-05 20:08 | 53.32894 | 14.44778 | 38121 ft | 480 kts | 19° |
| 2026-05-05 20:08 | 53.35972 | 14.47041 | 38344 ft | 479 kts | 19° |
| 2026-05-05 20:08 | 53.38985 | 14.49264 | 38544 ft | 478 kts | 19° |
| 2026-05-05 20:08 | 53.42042 | 14.51518 | 38718 ft | 477 kts | 19° |
| 2026-05-05 20:09 | 53.45083 | 14.53757 | 38870 ft | 477 kts | 19° |
| 2026-05-05 20:09 | 53.51181 | 14.58251 | 38895 ft | 478 kts | 19° |
| 2026-05-05 20:10 | 53.57235 | 14.62720 | 38897 ft | 477 kts | 19° |
| 2026-05-05 20:10 | 53.63314 | 14.67219 | 38896 ft | 478 kts | 20° |
| 2026-05-05 20:11 | 53.69419 | 14.71752 | 38897 ft | 478 kts | 20° |
| 2026-05-05 20:11 | 53.75480 | 14.76268 | 38897 ft | 478 kts | 20° |
| 2026-05-05 20:12 | 53.81537 | 14.80797 | 38897 ft | 478 kts | 20° |
| 2026-05-05 20:12 | 53.87591 | 14.85338 | 38898 ft | 478 kts | 20° |
| 2026-05-05 20:13 | 53.93621 | 14.89876 | 38897 ft | 477 kts | 20° |
| 2026-05-05 20:13 | 53.99692 | 14.94458 | 38897 ft | 477 kts | 20° |
| 2026-05-05 20:14 | 54.05736 | 14.99038 | 38897 ft | 477 kts | 20° |
| 2026-05-05 20:14 | 54.11711 | 15.03560 | 38897 ft | 477 kts | 19° |
| 2026-05-05 20:15 | 54.17739 | 15.08114 | 38897 ft | 477 kts | 19° |
| 2026-05-05 20:15 | 54.23824 | 15.12729 | 38897 ft | 477 kts | 19° |
| 2026-05-05 20:16 | 54.29859 | 15.17325 | 38897 ft | 477 kts | 19° |
| 2026-05-05 20:16 | 54.35884 | 15.21931 | 38897 ft | 477 kts | 19° |
| 2026-05-05 20:17 | 54.41954 | 15.26590 | 38897 ft | 477 kts | 19° |
| 2026-05-05 20:17 | 54.47996 | 15.31257 | 38897 ft | 477 kts | 20° |
| 2026-05-05 20:18 | 54.54034 | 15.35939 | 38897 ft | 477 kts | 20° |
| 2026-05-05 20:18 | 54.60083 | 15.40647 | 38898 ft | 476 kts | 19° |
| 2026-05-05 20:19 | 54.66092 | 15.45336 | 38902 ft | 476 kts | 19° |
| 2026-05-05 20:19 | 54.72120 | 15.50056 | 38910 ft | 476 kts | 19° |
| 2026-05-05 20:20 | 54.78159 | 15.54800 | 38918 ft | 476 kts | 20° |
| 2026-05-05 20:20 | 54.84187 | 15.59555 | 38922 ft | 476 kts | 20° |
| 2026-05-05 20:21 | 54.90126 | 15.64178 | 38923 ft | 475 kts | 17° |
| 2026-05-05 20:21 | 54.94949 | 15.67203 | 38922 ft | 472 kts | 13° |
| 2026-05-05 20:22 | 55.01237 | 15.70462 | 38924 ft | 471 kts | 12° |
| 2026-05-05 20:22 | 55.07521 | 15.73661 | 38924 ft | 472 kts | 12° |
| 2026-05-05 20:23 | 55.13788 | 15.76888 | 38924 ft | 471 kts | 12° |
| 2026-05-05 20:23 | 55.20087 | 15.80157 | 38924 ft | 471 kts | 12° |
| 2026-05-05 20:24 | 55.26341 | 15.83415 | 38924 ft | 471 kts | 12° |
| 2026-05-05 20:24 | 55.32620 | 15.86699 | 38924 ft | 470 kts | 12° |
| 2026-05-05 20:25 | 55.38852 | 15.89971 | 38924 ft | 470 kts | 12° |
| 2026-05-05 20:25 | 55.45113 | 15.93268 | 38924 ft | 470 kts | 12° |
| 2026-05-05 20:26 | 55.51343 | 15.96561 | 38924 ft | 470 kts | 12° |
| 2026-05-05 20:26 | 55.57614 | 15.99886 | 38924 ft | 470 kts | 12° |
| 2026-05-05 20:27 | 55.63828 | 16.03191 | 38924 ft | 470 kts | 12° |
| 2026-05-05 20:27 | 55.70079 | 16.06527 | 38924 ft | 470 kts | 12° |
| 2026-05-05 20:28 | 55.76313 | 16.09865 | 38924 ft | 470 kts | 12° |
| 2026-05-05 20:28 | 55.82547 | 16.13215 | 38924 ft | 470 kts | 12° |
| 2026-05-05 20:29 | 55.88796 | 16.16583 | 38924 ft | 470 kts | 12° |
| 2026-05-05 20:29 | 55.95024 | 16.19952 | 38924 ft | 470 kts | 12° |
| 2026-05-05 20:30 | 56.01252 | 16.23332 | 38924 ft | 470 kts | 12° |
| 2026-05-05 20:30 | 56.07480 | 16.26724 | 38924 ft | 470 kts | 12° |
| 2026-05-05 20:31 | 56.12637 | 16.29541 | 38923 ft | 469 kts | 12° |
| 2026-05-05 20:31 | 56.18877 | 16.32960 | 38924 ft | 469 kts | 12° |
| 2026-05-05 20:32 | 56.25111 | 16.36387 | 38924 ft | 469 kts | 12° |
| 2026-05-05 20:32 | 56.31337 | 16.39822 | 38924 ft | 469 kts | 12° |
| 2026-05-05 20:33 | 56.37563 | 16.43269 | 38924 ft | 470 kts | 12° |
| 2026-05-05 20:33 | 56.43788 | 16.46728 | 38924 ft | 470 kts | 12° |
| 2026-05-05 20:34 | 56.50007 | 16.50194 | 38924 ft | 470 kts | 12° |
| 2026-05-05 20:34 | 56.56242 | 16.53681 | 38924 ft | 470 kts | 12° |
| 2026-05-05 20:35 | 56.62481 | 16.57182 | 38924 ft | 470 kts | 12° |
| 2026-05-05 20:35 | 56.68696 | 16.60683 | 38924 ft | 470 kts | 12° |
| 2026-05-05 20:36 | 56.74900 | 16.64192 | 38924 ft | 470 kts | 11° |
| 2026-05-05 20:36 | 56.81132 | 16.67724 | 38923 ft | 470 kts | 12° |
| 2026-05-05 20:37 | 56.87354 | 16.71263 | 38924 ft | 470 kts | 12° |
| 2026-05-05 20:37 | 56.93571 | 16.74814 | 38924 ft | 470 kts | 12° |
| 2026-05-05 20:38 | 56.99821 | 16.78396 | 38923 ft | 470 kts | 12° |
| 2026-05-05 20:38 | 57.06062 | 16.81986 | 38924 ft | 471 kts | 12° |
| 2026-05-05 20:39 | 57.12249 | 16.85556 | 38923 ft | 471 kts | 12° |
| 2026-05-05 20:39 | 57.18494 | 16.89173 | 38924 ft | 471 kts | 12° |
| 2026-05-05 20:40 | 57.24709 | 16.92786 | 38924 ft | 471 kts | 12° |
| 2026-05-05 20:40 | 57.30965 | 16.96435 | 38924 ft | 471 kts | 12° |
| 2026-05-05 20:41 | 57.37184 | 17.00074 | 38924 ft | 471 kts | 12° |
| 2026-05-05 20:41 | 57.43415 | 17.03735 | 38924 ft | 471 kts | 12° |
| 2026-05-05 20:42 | 57.49650 | 17.07412 | 38924 ft | 471 kts | 12° |
| 2026-05-05 20:42 | 57.55886 | 17.11100 | 38924 ft | 472 kts | 12° |
| 2026-05-05 20:43 | 57.62107 | 17.14793 | 38923 ft | 472 kts | 12° |
| 2026-05-05 20:43 | 57.68365 | 17.18522 | 38937 ft | 473 kts | 12° |
| 2026-05-05 20:44 | 57.74611 | 17.22256 | 38947 ft | 473 kts | 12° |
| 2026-05-05 20:44 | 57.80801 | 17.25973 | 38469 ft | 467 kts | 12° |
| 2026-05-05 20:44 | 57.83877 | 17.27821 | 37763 ft | 470 kts | 12° |
| 2026-05-05 20:45 | 57.90122 | 17.31581 | 36254 ft | 475 kts | 11° |
| 2026-05-05 20:45 | 57.93257 | 17.33478 | 35549 ft | 475 kts | 11° |
| 2026-05-05 20:45 | 57.96381 | 17.35371 | 34821 ft | 477 kts | 11° |
| 2026-05-05 20:46 | 57.99522 | 17.37278 | 34055 ft | 479 kts | 11° |
| 2026-05-05 20:46 | 58.02713 | 17.39223 | 33253 ft | 481 kts | 11° |
| 2026-05-05 20:46 | 58.05883 | 17.41154 | 32420 ft | 484 kts | 10° |
| 2026-05-05 20:46 | 58.09088 | 17.43108 | 31588 ft | 486 kts | 10° |
| 2026-05-05 20:47 | 58.10685 | 17.44084 | 31186 ft | 486 kts | 10° |
| 2026-05-05 20:47 | 58.14258 | 17.46270 | 30252 ft | 488 kts | 10° |
| 2026-05-05 20:47 | 58.17478 | 17.48243 | 29369 ft | 490 kts | 10° |
| 2026-05-05 20:47 | 58.20674 | 17.50204 | 28568 ft | 489 kts | 10° |
| 2026-05-05 20:48 | 58.23904 | 17.52192 | 27902 ft | 485 kts | 10° |
| 2026-05-05 20:48 | 58.27061 | 17.54144 | 27289 ft | 480 kts | 10° |
| 2026-05-05 20:48 | 58.30229 | 17.56107 | 26668 ft | 475 kts | 10° |
| 2026-05-05 20:48 | 58.33336 | 17.58035 | 26070 ft | 470 kts | 10° |
| 2026-05-05 20:49 | 58.36434 | 17.59960 | 25463 ft | 466 kts | 10° |
| 2026-05-05 20:49 | 58.39511 | 17.61665 | 24861 ft | 458 kts | 6° |
| 2026-05-05 20:49 | 58.42593 | 17.62884 | 24198 ft | 449 kts | 359° |
| 2026-05-05 20:49 | 58.45644 | 17.63565 | 23326 ft | 449 kts | 356° |
| 2026-05-05 20:50 | 58.48754 | 17.64115 | 22608 ft | 446 kts | 356° |
| 2026-05-05 20:50 | 58.51840 | 17.64674 | 21997 ft | 442 kts | 356° |
| 2026-05-05 20:50 | 58.54887 | 17.65263 | 21377 ft | 438 kts | 358° |
| 2026-05-05 20:50 | 58.57897 | 17.65873 | 20731 ft | 435 kts | 358° |
| 2026-05-05 20:51 | 58.60873 | 17.66497 | 20119 ft | 431 kts | 358° |
| 2026-05-05 20:51 | 58.63819 | 17.67126 | 19513 ft | 426 kts | 358° |
| 2026-05-05 20:51 | 58.66776 | 17.67764 | 18885 ft | 422 kts | 358° |
| 2026-05-05 20:51 | 58.69667 | 17.68395 | 18264 ft | 419 kts | 358° |
| 2026-05-05 20:52 | 58.72503 | 17.69012 | 17655 ft | 415 kts | 358° |
| 2026-05-05 20:52 | 58.75368 | 17.69636 | 17055 ft | 410 kts | 358° |
| 2026-05-05 20:52 | 58.78173 | 17.70250 | 16479 ft | 405 kts | 359° |
| 2026-05-05 20:52 | 58.80956 | 17.70859 | 15905 ft | 401 kts | 359° |
| 2026-05-05 20:53 | 58.83708 | 17.71463 | 15349 ft | 395 kts | 359° |
| 2026-05-05 20:53 | 58.86406 | 17.72058 | 14779 ft | 391 kts | 359° |
| 2026-05-05 20:53 | 58.89075 | 17.72645 | 14215 ft | 386 kts | 360° |
| 2026-05-05 20:53 | 58.91738 | 17.73231 | 13653 ft | 382 kts | 0° |
| 2026-05-05 20:54 | 58.94312 | 17.73799 | 13093 ft | 378 kts | 0° |
| 2026-05-05 20:54 | 58.96930 | 17.74378 | 12524 ft | 374 kts | 1° |
| 2026-05-05 20:54 | 58.99477 | 17.74945 | 11972 ft | 370 kts | 1° |
| 2026-05-05 20:54 | 59.02013 | 17.75511 | 11418 ft | 365 kts | 2° |
| 2026-05-05 20:55 | 59.04536 | 17.76073 | 10851 ft | 362 kts | 2° |
| 2026-05-05 20:55 | 59.06982 | 17.76617 | 10298 ft | 358 kts | 2° |
| 2026-05-05 20:55 | 59.09448 | 17.77168 | 9734 ft | 354 kts | 3° |
| 2026-05-05 20:55 | 59.11867 | 17.77710 | 9179 ft | 351 kts | 4° |
| 2026-05-05 20:56 | 59.14270 | 17.78251 | 8621 ft | 347 kts | 4° |
| 2026-05-05 20:56 | 59.16658 | 17.78790 | 8058 ft | 343 kts | 4° |
| 2026-05-05 20:56 | 59.19002 | 17.79319 | 7500 ft | 340 kts | 4° |
| 2026-05-05 20:56 | 59.21323 | 17.79843 | 6933 ft | 336 kts | 4° |
| 2026-05-05 20:57 | 59.23614 | 17.80363 | 6559 ft | 327 kts | 4° |
| 2026-05-05 20:57 | 59.25850 | 17.80870 | 6328 ft | 314 kts | 4° |
| 2026-05-05 20:57 | 59.27957 | 17.81350 | 6109 ft | 302 kts | 4° |
| 2026-05-05 20:57 | 59.30011 | 17.81817 | 5901 ft | 291 kts | 4° |
| 2026-05-05 20:58 | 59.31967 | 17.82261 | 5698 ft | 280 kts | 4° |
| 2026-05-05 20:58 | 59.33882 | 17.82694 | 5506 ft | 270 kts | 4° |
| 2026-05-05 20:58 | 59.35708 | 17.83108 | 5323 ft | 261 kts | 4° |
| 2026-05-05 20:58 | 59.37462 | 17.83507 | 5148 ft | 251 kts | 4° |
| 2026-05-05 20:59 | 59.39176 | 17.83897 | 4890 ft | 247 kts | 5° |
| 2026-05-05 20:59 | 59.40865 | 17.84278 | 4590 ft | 244 kts | 5° |
| 2026-05-05 20:59 | 59.42520 | 17.84653 | 4281 ft | 236 kts | 5° |
| 2026-05-05 20:59 | 59.44127 | 17.85019 | 3953 ft | 229 kts | 5° |
| 2026-05-05 21:00 | 59.45680 | 17.85373 | 3635 ft | 218 kts | 6° |
| 2026-05-05 21:00 | 59.47130 | 17.85704 | 3351 ft | 208 kts | 6° |
| 2026-05-05 21:00 | 59.48551 | 17.86027 | 3098 ft | 200 kts | 6° |
| 2026-05-05 21:00 | 59.49912 | 17.86341 | 2861 ft | 196 kts | 7° |
| 2026-05-05 21:01 | 59.51251 | 17.86764 | 2607 ft | 195 kts | 10° |
| 2026-05-05 21:01 | 59.52548 | 17.87249 | 2444 ft | 186 kts | 11° |
| 2026-05-05 21:01 | 59.53806 | 17.87723 | 2166 ft | 183 kts | 11° |
| 2026-05-05 21:01 | 59.55028 | 17.88173 | 1894 ft | 174 kts | 11° |
| 2026-05-05 21:02 | 59.56181 | 17.88591 | 1642 ft | 165 kts | 11° |
| 2026-05-05 21:02 | 59.57269 | 17.88983 | 1441 ft | 152 kts | 11° |
| 2026-05-05 21:02 | 59.58260 | 17.89341 | 1237 ft | 137 kts | 11° |
| 2026-05-05 21:02 | 59.59163 | 17.89668 | 1045 ft | 128 kts | 11° |
| 2026-05-05 21:03 | 59.60033 | 17.89988 | 897 ft | 128 kts | 11° |
| 2026-05-05 21:03 | 59.60914 | 17.90316 | 743 ft | 128 kts | 11° |
| 2026-05-05 21:03 | 59.61782 | 17.90611 | 560 ft | 128 kts | 10° |
| 2026-05-05 21:03 | 59.62656 | 17.90919 | 396 ft | 127 kts | 12° |
| 2026-05-05 21:04 | 59.63528 | 17.91247 | 229 ft | 126 kts | 11° |
| 2026-05-05 21:04 | 59.64345 | 17.91549 | 146 ft | 103 kts | 9° |
| 2026-05-05 21:04 | 59.64883 | 17.91740 | 146 ft | 54 kts | 11° |
| 2026-05-05 21:04 | 59.65125 | 17.91864 | 146 ft | 29 kts | 27° |
| 2026-05-05 21:05 | 59.65288 | 17.92087 | 146 ft | 27 kts | 44° |
| 2026-05-05 21:05 | 59.65424 | 17.92343 | 146 ft | 26 kts | 43° |
| 2026-05-05 21:05 | 59.65528 | 17.92623 | 146 ft | 25 kts | 73° |
| 2026-05-05 21:05 | 59.65567 | 17.92928 | 146 ft | 15 kts | 76° |
| 2026-05-05 21:06 | 59.65576 | 17.93120 | 146 ft | 14 kts | 122° |
| 2026-05-05 21:06 | 59.65484 | 17.93191 | 146 ft | 14 kts | 162° |
| 2026-05-05 21:06 | 59.65392 | 17.93285 | 146 ft | 15 kts | 166° |
| 2026-05-05 21:06 | 59.65317 | 17.93304 | 146 ft | 6 kts | 196° |
| 2026-05-05 21:07 | 59.65286 | 17.93223 | 146 ft | 7 kts | 249° |
| 2026-05-05 21:07 | 59.65280 | 17.93189 | 146 ft | 0 kts | 250° |